Time;durP1;ratioP1;P1;durP2;ratioP2;P2;SDS_P1;SDS_P2;PMS_P1;PMS_P2;Temp;Humidity;BMP_temperature;BMP_pressure;BME280_temperature;BME280_humidity;BME280_pressure;Samples;Min_cycle;Max_cycle;Signal;HPM_P1;HPM_P2
2024/02/10 00:00:20;;;;;;;10.20;4.70;;;8.10;99.90;;;;;;5021586;28;20132;-33
2024/02/10 00:02:47;;;;;;;9.30;4.10;;;8.10;99.90;;;;;;5024361;28;20075;-31
2024/02/10 00:05:13;;;;;;;9.77;5.28;;;8.10;99.90;;;;;;5022768;28;20029;-32
2024/02/10 00:07:39;;;;;;;11.25;4.40;;;8.00;99.90;;;;;;5019148;28;20505;-32
2024/02/10 00:10:05;;;;;;;38.55;14.00;;;8.00;99.90;;;;;;5027195;28;20102;-35
2024/02/10 00:12:31;;;;;;;73.57;24.67;;;8.00;99.90;;;;;;5024960;28;20080;-36
2024/02/10 00:14:58;;;;;;;68.97;23.48;;;7.90;99.90;;;;;;5028032;28;20027;-37
2024/02/10 00:17:26;;;;;;;30.75;12.70;;;7.90;99.90;;;;;;5025476;28;20029;-32
2024/02/10 00:19:55;;;;;;;13.13;6.63;;;7.80;99.90;;;;;;5022910;28;20074;-37
2024/02/10 00:22:24;;;;;;;19.27;8.07;;;7.60;99.90;;;;;;5016574;28;20037;-40
2024/02/10 00:24:51;;;;;;;10.25;5.47;;;7.70;99.90;;;;;;5023641;28;20033;-35
2024/02/10 00:27:17;;;;;;;13.40;5.95;;;7.70;99.90;;;;;;5025573;28;20026;-41
2024/02/10 00:29:46;;;;;;;12.10;5.57;;;7.80;99.90;;;;;;5025927;28;20018;-41
2024/02/10 00:32:13;;;;;;;12.18;5.78;;;7.80;99.90;;;;;;5025311;28;20029;-39
2024/02/10 00:34:41;;;;;;;11.38;5.97;;;7.90;99.90;;;;;;5033267;28;20092;-41
2024/02/10 00:37:08;;;;;;;11.55;6.40;;;7.80;99.90;;;;;;5019371;28;20059;-39
2024/02/10 00:39:34;;;;;;;12.05;5.68;;;7.60;99.90;;;;;;5040350;28;20730;-41
2024/02/10 00:42:00;;;;;;;12.10;6.07;;;7.40;99.90;;;;;;5034213;28;20029;-39
2024/02/10 00:44:28;;;;;;;11.40;5.70;;;7.30;99.90;;;;;;5021234;28;20030;-40
2024/02/10 00:46:57;;;;;;;14.57;6.78;;;7.30;99.90;;;;;;5028945;28;20025;-38
2024/02/10 00:49:24;;;;;;;12.52;5.53;;;7.30;99.90;;;;;;5027692;28;20037;-39
2024/02/10 00:51:50;;;;;;;14.05;5.88;;;7.20;99.90;;;;;;5021590;28;20483;-38
2024/02/10 00:54:26;;;;;;;10.45;5.65;;;7.30;99.90;;;;;;5025667;28;20628;-38
2024/02/10 00:56:52;;;;;;;10.40;5.53;;;7.30;99.90;;;;;;5023964;28;20030;-37
2024/02/10 00:59:18;;;;;;;10.15;5.05;;;7.30;99.90;;;;;;5027035;28;20029;-40
2024/02/10 01:01:44;;;;;;;12.88;6.18;;;7.40;99.90;;;;;;5024756;28;20080;-41
2024/02/10 01:04:11;;;;;;;11.05;5.60;;;7.40;99.90;;;;;;5024515;28;20033;-41
2024/02/10 01:06:40;;;;;;;9.83;5.87;;;7.20;99.90;;;;;;5025616;28;20078;-40
2024/02/10 01:09:07;;;;;;;10.18;5.32;;;7.30;99.90;;;;;;5029303;28;20280;-39
2024/02/10 01:11:33;;;;;;;10.82;5.95;;;7.40;99.90;;;;;;5025420;28;20041;-41
2024/02/10 01:13:59;;;;;;;6.47;4.10;;;7.40;99.90;;;;;;5023038;28;20024;-41
2024/02/10 01:16:25;;;;;;;11.82;5.38;;;7.30;99.90;;;;;;5021843;28;20033;-39
2024/02/10 01:18:51;;;;;;;9.80;5.20;;;7.10;99.90;;;;;;5021856;28;20032;-35
2024/02/10 01:21:18;;;;;;;9.95;5.78;;;7.10;99.90;;;;;;5023111;28;20048;-40
2024/02/10 01:23:46;;;;;;;8.07;5.20;;;7.10;99.90;;;;;;5025858;28;20022;-37
2024/02/10 01:26:13;;;;;;;8.67;5.20;;;7.10;99.90;;;;;;5016338;28;20442;-41
2024/02/10 01:28:44;;;;;;;8.90;5.32;;;7.20;99.90;;;;;;5032107;28;20283;-41
2024/02/10 01:31:12;;;;;;;12.43;4.95;;;7.10;99.90;;;;;;5023035;28;20034;-42
2024/02/10 01:33:41;;;;;;;8.85;5.63;;;7.20;99.90;;;;;;5030978;28;20029;-42
2024/02/10 01:36:09;;;;;;;8.68;4.60;;;7.10;99.90;;;;;;5018125;28;20054;-40
2024/02/10 01:38:46;;;;;;;13.27;5.85;;;7.10;99.90;;;;;;5023195;28;20393;-42
2024/02/10 01:41:13;;;;;;;8.43;4.32;;;7.10;99.90;;;;;;5026172;28;20100;-42
2024/02/10 01:43:41;;;;;;;11.48;5.30;;;7.10;99.90;;;;;;5005578;28;20029;-43
2024/02/10 01:46:21;;;;;;;8.88;5.15;;;7.10;99.90;;;;;;5022684;28;20045;-40
2024/02/10 01:48:48;;;;;;;8.05;4.80;;;7.20;99.90;;;;;;5022312;28;20388;-40
2024/02/10 01:51:17;;;;;;;7.57;4.60;;;7.20;99.90;;;;;;5021710;28;20021;-42
2024/02/10 01:53:44;;;;;;;9.05;4.70;;;7.30;99.90;;;;;;5020772;28;20033;-42
2024/02/10 01:56:11;;;;;;;14.13;4.95;;;7.30;99.90;;;;;;5019329;28;20056;-40
2024/02/10 01:58:39;;;;;;;6.97;4.38;;;7.30;99.90;;;;;;5020392;28;20052;-40
2024/02/10 02:01:05;;;;;;;13.80;5.50;;;7.30;99.90;;;;;;5024093;28;20042;-40
2024/02/10 02:03:32;;;;;;;10.13;5.80;;;7.30;99.90;;;;;;5019725;28;20025;-40
2024/02/10 02:06:00;;;;;;;13.85;5.65;;;7.20;99.90;;;;;;5023449;28;20041;-37
2024/02/10 02:08:26;;;;;;;11.75;5.38;;;7.00;99.90;;;;;;5021656;28;20029;-42
2024/02/10 02:10:52;;;;;;;13.70;5.63;;;7.00;99.90;;;;;;5023023;28;20037;-36
2024/02/10 02:13:22;;;;;;;7.70;4.82;;;7.10;99.90;;;;;;5024065;28;20400;-41
2024/02/10 02:15:49;;;;;;;7.13;4.70;;;7.10;99.90;;;;;;5020352;28;20107;-41
2024/02/10 02:18:14;;;;;;;13.43;4.75;;;7.10;99.90;;;;;;5004945;28;20492;-40
2024/02/10 02:20:46;;;;;;;8.70;4.78;;;7.10;99.90;;;;;;5020494;28;20033;-41
2024/02/10 02:23:18;;;;;;;9.45;4.20;;;7.10;99.90;;;;;;5019440;28;20526;-40
2024/02/10 02:25:50;;;;;;;8.27;5.13;;;7.10;99.90;;;;;;5020874;28;20063;-42
2024/02/10 02:28:23;;;;;;;7.40;4.65;;;7.10;99.90;;;;;;5024362;28;20656;-40
2024/02/10 02:30:49;;;;;;;8.30;5.05;;;7.10;99.90;;;;;;5018775;28;20037;-37
2024/02/10 02:33:15;;;;;;;8.45;4.70;;;7.10;99.90;;;;;;5021239;28;20035;-40
2024/02/10 02:35:43;;;;;;;6.88;4.47;;;7.10;99.90;;;;;;5021086;28;20613;-38
2024/02/10 02:38:13;;;;;;;7.80;4.53;;;7.20;99.90;;;;;;5024626;28;20061;-42
2024/02/10 02:40:42;;;;;;;7.43;4.25;;;7.20;99.90;;;;;;5020623;28;20145;-31
2024/02/10 02:43:08;;;;;;;7.57;4.13;;;7.20;99.90;;;;;;5025397;28;20128;-31
2024/02/10 02:45:35;;;;;;;5.20;3.88;;;7.20;99.90;;;;;;5022902;28;20831;-32
2024/02/10 02:48:01;;;;;;;7.72;4.50;;;7.10;99.90;;;;;;5021328;28;20025;-34
2024/02/10 02:50:31;;;;;;;6.45;4.20;;;7.20;99.90;;;;;;5007906;28;20044;-34
2024/02/10 02:53:02;;;;;;;5.82;3.85;;;7.20;99.90;;;;;;5020598;28;20605;-34
2024/02/10 02:55:32;;;;;;;8.52;4.85;;;7.20;99.90;;;;;;5028359;28;20060;-33
2024/02/10 02:58:09;;;;;;;6.32;4.68;;;7.20;99.90;;;;;;5030559;28;20712;-32
2024/02/10 03:00:35;;;;;;;7.57;4.32;;;7.10;99.90;;;;;;5027922;28;20033;-32
2024/02/10 03:03:03;;;;;;;7.35;4.28;;;7.00;99.90;;;;;;5021736;28;20194;-34
2024/02/10 03:05:29;;;;;;;11.60;4.40;;;7.00;99.90;;;;;;5022191;28;20562;-33
2024/02/10 03:07:55;;;;;;;7.10;3.72;;;6.90;99.90;;;;;;5023824;28;20114;-34
2024/02/10 03:10:21;;;;;;;7.13;3.75;;;7.00;99.90;;;;;;5021394;28;20036;-35
2024/02/10 03:12:48;;;;;;;6.18;4.00;;;7.00;99.90;;;;;;5015979;28;20029;-33
2024/02/10 03:15:14;;;;;;;6.65;4.32;;;6.90;99.90;;;;;;5021909;28;20042;-34
2024/02/10 03:17:41;;;;;;;6.88;4.38;;;6.90;99.90;;;;;;5018962;28;20539;-35
2024/02/10 03:20:09;;;;;;;7.43;4.20;;;6.90;99.90;;;;;;5003815;28;20060;-34
2024/02/10 03:22:36;;;;;;;7.90;4.45;;;6.90;99.90;;;;;;5016784;28;20511;-34
2024/02/10 03:25:02;;;;;;;7.10;4.32;;;6.90;99.90;;;;;;5024468;28;20072;-33
2024/02/10 03:27:27;;;;;;;6.03;3.85;;;6.80;99.90;;;;;;5021803;28;20511;-32
2024/02/10 03:29:53;;;;;;;14.10;4.88;;;6.80;99.90;;;;;;5020510;28;20013;-34
2024/02/10 03:32:19;;;;;;;7.88;4.20;;;6.80;99.90;;;;;;5016671;28;20410;-33
2024/02/10 03:34:44;;;;;;;9.13;4.72;;;6.90;99.90;;;;;;5021582;28;20540;-36
2024/02/10 03:37:12;;;;;;;9.70;4.75;;;6.80;99.90;;;;;;5018113;28;20033;-33
2024/02/10 03:39:38;;;;;;;5.68;3.50;;;6.80;99.90;;;;;;5020273;28;20034;-32
2024/02/10 03:42:06;;;;;;;6.18;4.25;;;6.80;99.90;;;;;;5016789;28;20036;-32
2024/02/10 03:44:31;;;;;;;5.82;4.32;;;6.80;99.90;;;;;;5022274;28;20048;-33
2024/02/10 03:47:01;;;;;;;9.45;3.80;;;6.90;99.90;;;;;;5019555;28;20055;-37
2024/02/10 03:49:30;;;;;;;7.45;3.80;;;6.80;99.90;;;;;;5023428;28;20494;-35
2024/02/10 03:51:56;;;;;;;;;;;6.80;99.90;;;;;;5021257;28;20132;-35
2024/02/10 03:54:22;;;;;;;7.75;3.67;;;6.80;99.90;;;;;;5022767;28;20000;-35
2024/02/10 03:56:49;;;;;;;6.68;4.43;;;6.70;99.90;;;;;;5023406;28;20508;-33
2024/02/10 03:59:16;;;;;;;8.02;4.10;;;6.70;99.90;;;;;;5024105;28;20083;-33
2024/02/10 04:01:48;;;;;;;6.93;3.90;;;6.70;99.90;;;;;;5007945;28;20103;-34
2024/02/10 04:04:18;;;;;;;10.98;4.07;;;6.70;99.90;;;;;;5029038;28;20029;-33
2024/02/10 04:06:46;;;;;;;5.78;3.40;;;6.70;99.90;;;;;;5039088;28;20067;-34
2024/02/10 04:09:11;;;;;;;5.63;3.85;;;6.70;99.90;;;;;;5023957;28;20041;-33
2024/02/10 04:11:37;;;;;;;9.02;3.88;;;6.60;99.90;;;;;;5002571;28;20084;-32
2024/02/10 04:14:03;;;;;;;7.28;3.58;;;6.60;99.90;;;;;;5026386;28;20029;-35
2024/02/10 04:16:41;;;;;;;6.43;3.65;;;6.50;99.90;;;;;;5022787;28;20036;-32
2024/02/10 04:19:07;;;;;;;6.68;3.80;;;6.40;99.90;;;;;;5021170;28;20026;-34
2024/02/10 04:21:33;;;;;;;7.40;3.95;;;6.50;99.90;;;;;;5023385;28;20095;-34
2024/02/10 04:23:59;;;;;;;8.00;3.83;;;6.50;99.90;;;;;;5019919;28;20041;-34
2024/02/10 04:26:24;;;;;;;6.45;3.53;;;6.50;99.90;;;;;;5021618;28;20045;-31
2024/02/10 04:28:50;;;;;;;5.07;3.55;;;6.40;99.90;;;;;;5023692;28;20586;-31
2024/02/10 04:31:16;;;;;;;5.68;3.53;;;6.40;99.90;;;;;;5037356;28;20671;-33
2024/02/10 04:33:46;;;;;;;5.65;3.63;;;6.40;99.90;;;;;;5014452;28;20068;-33
2024/02/10 04:36:13;;;;;;;5.13;3.60;;;6.40;99.90;;;;;;5023233;28;20619;-31
2024/02/10 04:38:38;;;;;;;5.43;3.63;;;6.30;99.90;;;;;;5023747;28;20124;-32
2024/02/10 04:41:04;;;;;;;6.47;3.45;;;6.40;99.90;;;;;;5021881;28;20459;-34
2024/02/10 04:43:30;;;;;;;5.05;4.10;;;6.30;99.90;;;;;;5023839;28;20044;-34
2024/02/10 04:45:55;;;;;;;5.47;3.72;;;6.40;99.90;;;;;;5020648;28;20030;-37
2024/02/10 04:48:21;;;;;;;5.30;3.80;;;6.20;99.90;;;;;;5009333;28;20431;-31
2024/02/10 04:50:46;;;;;;;6.72;4.07;;;6.20;99.90;;;;;;5036581;28;20079;-32
2024/02/10 04:53:16;;;;;;;7.05;3.90;;;6.30;99.90;;;;;;5020376;28;20029;-34
2024/02/10 04:55:42;;;;;;;5.43;3.88;;;6.30;99.90;;;;;;5009171;28;20029;-32
2024/02/10 04:58:08;;;;;;;6.85;3.67;;;6.30;99.90;;;;;;5022353;28;20037;-33
2024/02/10 05:00:33;;;;;;;6.90;3.45;;;6.30;99.90;;;;;;5023702;28;20045;-32
2024/02/10 05:03:02;;;;;;;6.63;3.60;;;6.30;99.90;;;;;;5022635;28;20026;-35
2024/02/10 05:05:28;;;;;;;6.25;4.07;;;6.30;99.90;;;;;;5026751;28;20483;-37
2024/02/10 05:07:55;;;;;;;6.60;3.88;;;6.30;99.90;;;;;;5022243;28;20025;-35
2024/02/10 05:10:21;;;;;;;6.68;3.25;;;6.40;99.90;;;;;;5021405;28;20040;-32
2024/02/10 05:12:49;;;;;;;6.22;3.38;;;6.40;99.90;;;;;;5021659;28;20591;-34
2024/02/10 05:15:18;;;;;;;7.50;3.85;;;6.30;99.90;;;;;;5023484;28;20057;-34
2024/02/10 05:17:48;;;;;;;13.07;4.80;;;6.30;99.90;;;;;;5019759;28;20103;-34
2024/02/10 05:20:21;;;;;;;5.47;3.83;;;6.40;99.90;;;;;;5024673;28;20028;-42
2024/02/10 05:22:51;;;;;;;5.35;3.90;;;6.40;99.90;;;;;;5021893;28;20101;-41
2024/02/10 05:25:18;;;;;;;4.93;3.50;;;6.40;99.90;;;;;;5021684;28;20160;-40
2024/02/10 05:27:45;;;;;;;5.40;3.58;;;6.40;99.90;;;;;;5022085;28;20022;-38
2024/02/10 05:30:20;;;;;;;6.32;4.00;;;6.40;99.90;;;;;;5022015;28;20061;-41
2024/02/10 05:32:52;;;;;;;6.85;4.30;;;6.40;99.90;;;;;;5015055;28;20495;-39
2024/02/10 05:35:20;;;;;;;6.35;4.00;;;6.50;99.90;;;;;;5024413;28;20435;-38
2024/02/10 05:37:50;;;;;;;5.88;3.70;;;6.50;99.90;;;;;;5023156;28;20044;-41
2024/02/10 05:40:17;;;;;;;6.13;3.25;;;6.40;99.90;;;;;;5023867;28;20115;-40
2024/02/10 05:42:45;;;;;;;5.20;3.55;;;6.50;99.90;;;;;;5025077;28;20038;-40
2024/02/10 05:45:11;;;;;;;8.18;3.65;;;6.40;99.90;;;;;;5021742;28;20068;-39
2024/02/10 05:47:39;;;;;;;5.20;3.90;;;6.40;99.90;;;;;;5005488;28;20493;-41
2024/02/10 05:50:08;;;;;;;6.25;3.50;;;6.40;99.90;;;;;;5019371;28;20017;-39
2024/02/10 05:52:35;;;;;;;4.72;3.38;;;6.30;99.90;;;;;;5029423;28;20499;-43
2024/02/10 05:55:03;;;;;;;6.90;3.58;;;6.30;99.90;;;;;;5022748;28;20092;-42
2024/02/10 05:57:29;;;;;;;4.97;3.53;;;6.40;99.90;;;;;;5023794;28;20083;-41
2024/02/10 05:59:55;;;;;;;9.25;3.40;;;6.40;99.90;;;;;;5026426;28;20041;-35
2024/02/10 06:02:21;;;;;;;4.38;3.35;;;6.30;99.90;;;;;;5018887;28;20092;-42
2024/02/10 06:04:52;;;;;;;5.32;3.40;;;6.30;99.90;;;;;;5016125;28;20427;-38
2024/02/10 06:07:18;;;;;;;6.40;4.22;;;6.20;99.90;;;;;;5017044;28;20960;-41
2024/02/10 06:09:44;;;;;;;5.75;4.22;;;6.10;99.90;;;;;;5014042;28;20022;-42
2024/02/10 06:12:10;;;;;;;4.32;3.50;;;6.20;99.90;;;;;;5035689;28;20857;-31
2024/02/10 06:14:37;;;;;;;8.75;3.83;;;6.10;99.90;;;;;;5018010;28;20184;-32
2024/02/10 06:17:03;;;;;;;4.93;3.38;;;6.10;99.90;;;;;;5017909;28;20640;-34
2024/02/10 06:19:29;;;;;;;5.15;3.63;;;6.10;99.90;;;;;;5040139;28;20021;-34
2024/02/10 06:21:55;;;;;;;6.65;3.78;;;6.10;99.90;;;;;;5035965;28;20044;-33
2024/02/10 06:24:20;;;;;;;6.03;3.70;;;6.10;99.90;;;;;;5017332;28;20593;-34
2024/02/10 06:26:48;;;;;;;5.35;3.70;;;6.10;99.90;;;;;;5021456;28;20025;-39
2024/02/10 06:29:15;;;;;;;6.03;3.72;;;6.10;99.90;;;;;;5022427;28;20018;-32
2024/02/10 06:31:44;;;;;;;7.50;3.80;;;6.10;99.90;;;;;;5019222;28;20029;-38
2024/02/10 06:34:10;;;;;;;7.65;4.43;;;6.00;99.90;;;;;;5016123;28;20053;-43
2024/02/10 06:36:35;;;;;;;4.57;3.60;;;6.00;99.90;;;;;;5019211;28;20443;-39
2024/02/10 06:39:01;;;;;;;7.38;3.92;;;5.90;99.90;;;;;;5018667;28;20030;-40
2024/02/10 06:41:30;;;;;;;6.68;3.28;;;5.80;99.90;;;;;;5020893;28;20471;-41
2024/02/10 06:43:56;;;;;;;8.48;3.88;;;5.80;99.90;;;;;;5020126;28;20099;-36
2024/02/10 06:46:21;;;;;;;3.63;3.08;;;5.80;99.90;;;;;;5021560;28;20654;-40
2024/02/10 06:48:47;;;;;;;4.93;2.90;;;5.70;99.90;;;;;;5020268;28;20393;-38
2024/02/10 06:51:13;;;;;;;4.43;3.10;;;5.70;99.90;;;;;;5020158;28;20038;-39
2024/02/10 06:53:39;;;;;;;3.08;2.88;;;5.70;99.90;;;;;;5024198;28;20029;-41
2024/02/10 06:56:05;;;;;;;4.10;2.90;;;5.80;99.90;;;;;;5020550;28;20063;-38
2024/02/10 06:58:30;;;;;;;3.20;2.90;;;5.70;99.90;;;;;;5020509;28;20048;-40
2024/02/10 07:00:58;;;;;;;3.45;2.97;;;5.70;99.90;;;;;;5016259;28;20096;-34
2024/02/10 07:03:24;;;;;;;9.50;4.57;;;5.70;99.90;;;;;;5000373;28;20125;-40
2024/02/10 07:05:52;;;;;;;8.75;4.72;;;5.70;99.90;;;;;;5000566;28;20048;-40
2024/02/10 07:08:18;;;;;;;10.85;6.47;;;5.70;99.90;;;;;;5014589;28;20053;-39
2024/02/10 07:10:48;;;;;;;10.13;6.80;;;5.70;99.90;;;;;;5001111;28;20076;-40
2024/02/10 07:13:14;;;;;;;10.43;5.93;;;5.80;99.90;;;;;;5000133;28;20531;-39
2024/02/10 07:15:41;;;;;;;9.68;5.85;;;5.70;99.90;;;;;;5004453;28;20036;-38
2024/02/10 07:18:07;;;;;;;6.28;4.20;;;5.70;99.90;;;;;;4984407;28;20092;-39
2024/02/10 07:20:34;;;;;;;20.00;10.27;;;5.80;99.90;;;;;;4984751;28;20115;-40
2024/02/10 07:23:03;;;;;;;15.30;8.20;;;5.80;99.90;;;;;;4997172;28;20022;-42
2024/02/10 07:25:31;;;;;;;11.77;6.20;;;5.80;99.90;;;;;;4999699;28;20100;-41
2024/02/10 07:28:01;;;;;;;7.28;5.20;;;5.80;99.90;;;;;;5004962;28;20022;-39
2024/02/10 07:30:28;;;;;;;8.20;5.60;;;5.90;99.90;;;;;;5006988;28;20032;-36
2024/02/10 07:32:54;;;;;;;6.03;4.75;;;5.90;99.90;;;;;;5002358;28;20033;-42
2024/02/10 07:35:23;;;;;;;10.43;4.93;;;5.90;99.90;;;;;;5002672;28;20450;-39
2024/02/10 07:37:49;;;;;;;6.65;4.63;;;5.90;99.90;;;;;;5006044;28;20022;-43
2024/02/10 07:40:15;;;;;;;5.28;3.72;;;5.90;99.90;;;;;;5003204;28;20605;-31
2024/02/10 07:42:42;;;;;;;5.03;3.55;;;6.00;99.90;;;;;;4988287;28;20156;-32
2024/02/10 07:45:12;;;;;;;5.38;3.15;;;6.00;99.90;;;;;;4989623;28;20125;-33
2024/02/10 07:47:39;;;;;;;7.90;3.17;;;6.00;99.90;;;;;;4995964;28;20456;-32
2024/02/10 07:50:06;;;;;;;3.10;2.78;;;5.90;99.90;;;;;;4995698;28;20045;-31
2024/02/10 07:52:32;;;;;;;2.85;2.55;;;5.70;99.90;;;;;;4989969;28;20060;-32
2024/02/10 07:54:58;;;;;;;4.07;3.15;;;5.60;99.90;;;;;;5001873;28;20022;-36
2024/02/10 07:57:25;;;;;;;4.47;3.65;;;5.60;99.90;;;;;;5007557;28;20041;-32
2024/02/10 07:59:53;;;;;;;9.52;5.10;;;5.60;99.90;;;;;;5021341;28;20062;-33
2024/02/10 08:02:25;;;;;;;6.32;4.88;;;5.70;99.90;;;;;;5002893;28;20403;-31
2024/02/10 08:04:56;;;;;;;11.45;6.95;;;5.70;99.90;;;;;;5007537;28;20033;-36
2024/02/10 08:07:29;;;;;;;9.90;5.88;;;5.70;99.90;;;;;;5010122;28;20022;-32
2024/02/10 08:09:56;;;;;;;7.63;5.40;;;5.70;99.90;;;;;;5004445;28;20052;-39
2024/02/10 08:12:25;;;;;;;7.07;4.32;;;5.70;99.90;;;;;;5006457;28;20026;-31
2024/02/10 08:14:53;;;;;;;5.03;3.90;;;5.70;99.90;;;;;;5013509;28;20030;-32
2024/02/10 08:17:30;;;;;;;7.47;4.63;;;5.80;99.90;;;;;;5021184;28;20056;-31
2024/02/10 08:19:57;;;;;;;9.30;4.72;;;5.80;99.90;;;;;;5026781;28;20021;-36
2024/02/10 08:22:30;;;;;;;5.38;4.20;;;5.90;99.90;;;;;;5019746;28;20033;-36
2024/02/10 08:24:58;;;;;;;6.93;4.78;;;6.00;99.90;;;;;;5006347;28;20033;-37
2024/02/10 08:27:31;;;;;;;12.17;5.00;;;6.10;99.90;;;;;;5012521;28;20053;-32
2024/02/10 08:29:59;;;;;;;7.15;5.00;;;6.10;99.90;;;;;;5018713;28;20017;-38
2024/02/10 08:32:26;;;;;;;8.50;5.25;;;6.30;99.90;;;;;;5022792;28;20034;-33
2024/02/10 08:34:52;;;;;;;29.00;14.30;;;6.30;99.90;;;;;;5021617;28;20033;-34
2024/02/10 08:37:18;;;;;;;21.38;11.48;;;6.30;99.90;;;;;;5021230;28;20030;-33
2024/02/10 08:39:45;;;;;;;20.23;10.82;;;6.30;99.90;;;;;;5022983;28;20439;-34
2024/02/10 08:42:15;;;;;;;23.92;9.90;;;6.30;99.90;;;;;;5025488;28;20053;-35
2024/02/10 08:44:44;;;;;;;15.40;9.68;;;6.40;99.90;;;;;;5025183;28;20037;-35
2024/02/10 08:47:10;;;;;;;12.93;7.35;;;6.50;99.90;;;;;;5022335;28;20038;-36
2024/02/10 08:49:38;;;;;;;11.98;6.95;;;6.50;99.90;;;;;;5023685;28;20034;-35
2024/02/10 08:52:19;;;;;;;13.13;6.53;;;6.60;99.90;;;;;;5022020;28;20018;-41
2024/02/10 08:54:46;;;;;;;13.70;6.30;;;6.60;99.90;;;;;;5023196;28;20040;-40
2024/02/10 08:57:15;;;;;;;11.80;7.30;;;6.70;99.90;;;;;;5023115;28;20068;-40
2024/02/10 08:59:43;;;;;;;12.45;7.00;;;6.70;99.90;;;;;;5023984;28;20061;-40
2024/02/10 09:02:09;;;;;;;12.48;7.75;;;6.70;99.90;;;;;;5019204;28;20040;-39
2024/02/10 09:04:38;;;;;;;16.90;8.85;;;6.80;99.90;;;;;;5021785;28;20056;-34
2024/02/10 09:07:08;;;;;;;8.65;6.82;;;6.80;99.90;;;;;;5023377;28;20133;-40
2024/02/10 09:09:35;;;;;;;11.63;6.97;;;6.80;99.90;;;;;;5019140;28;20084;-40
2024/02/10 09:12:00;;;;;;;11.00;6.30;;;6.80;99.90;;;;;;5003410;28;20053;-39
2024/02/10 09:14:26;;;;;;;9.90;6.90;;;6.90;99.90;;;;;;5025507;28;20067;-41
2024/02/10 09:16:52;;;;;;;14.35;7.07;;;7.00;99.90;;;;;;5023965;28;20053;-38
2024/02/10 09:19:19;;;;;;;9.35;6.18;;;6.90;99.90;;;;;;5018185;28;20029;-37
2024/02/10 09:21:58;;;;;;;11.18;7.10;;;7.00;99.90;;;;;;5026643;28;20041;-41
2024/02/10 09:24:26;;;;;;;14.93;7.45;;;7.00;99.90;;;;;;5025835;28;20025;-40
2024/02/10 09:26:55;;;;;;;10.45;7.00;;;7.00;99.90;;;;;;5024878;28;20036;-37
2024/02/10 09:29:21;;;;;;;12.10;6.10;;;6.90;99.90;;;;;;5020773;28;20040;-38
2024/02/10 09:31:52;;;;;;;12.25;5.65;;;6.90;99.90;;;;;;5022696;28;20503;-40
2024/02/10 09:34:20;;;;;;;11.30;6.75;;;6.80;99.90;;;;;;5014957;28;20045;-37
2024/02/10 09:36:47;;;;;;;10.23;6.88;;;6.90;99.90;;;;;;5023043;28;20029;-41
2024/02/10 09:39:13;;;;;;;9.13;6.63;;;6.90;99.90;;;;;;5020635;28;20036;-40
2024/02/10 09:41:40;;;;;;;12.10;6.05;;;7.00;99.90;;;;;;5024164;28;20438;-37
2024/02/10 09:44:10;;;;;;;10.80;6.57;;;7.00;99.90;;;;;;5021344;28;20044;-40
2024/02/10 09:46:36;;;;;;;11.65;7.43;;;7.00;99.90;;;;;;5021488;28;20172;-38
2024/02/10 09:49:07;;;;;;;10.27;7.57;;;7.00;99.90;;;;;;5024449;28;20026;-38
2024/02/10 09:51:39;;;;;;;11.25;7.25;;;7.00;99.90;;;;;;5023336;28;20021;-41
2024/02/10 09:54:06;;;;;;;10.20;7.32;;;7.00;99.90;;;;;;5022699;28;20032;-37
2024/02/10 09:56:35;;;;;;;16.65;8.35;;;7.10;99.90;;;;;;5020545;28;20099;-41
2024/02/10 09:59:03;;;;;;;11.27;7.68;;;7.10;99.90;;;;;;5021280;28;20432;-38
2024/02/10 10:01:32;;;;;;;13.18;8.30;;;7.20;99.90;;;;;;5021214;28;20431;-32
2024/02/10 10:04:01;;;;;;;14.73;8.38;;;7.30;99.90;;;;;;5023504;28;20029;-34
2024/02/10 10:06:27;;;;;;;13.70;7.68;;;7.30;99.90;;;;;;5022114;28;20037;-33
2024/02/10 10:08:53;;;;;;;11.32;7.72;;;7.30;99.90;;;;;;5021181;28;20195;-36
2024/02/10 10:11:21;;;;;;;12.18;6.18;;;7.40;99.90;;;;;;5017678;28;20025;-35
2024/02/10 10:13:47;;;;;;;9.20;5.75;;;7.40;99.90;;;;;;5022950;28;20115;-32
2024/02/10 10:16:13;;;;;;;11.88;6.15;;;7.40;99.90;;;;;;5023619;28;20064;-32
2024/02/10 10:18:39;;;;;;;9.48;5.57;;;7.40;99.90;;;;;;5023710;28;20033;-36
2024/02/10 10:21:06;;;;;;;8.45;5.95;;;7.40;99.90;;;;;;5037389;28;20179;-33
2024/02/10 10:23:35;;;;;;;9.65;6.10;;;7.30;99.90;;;;;;5026471;28;20045;-32
2024/02/10 10:26:01;;;;;;;9.48;6.07;;;7.30;99.90;;;;;;5020654;28;20164;-36
2024/02/10 10:28:27;;;;;;;9.75;5.80;;;7.30;99.90;;;;;;5016935;28;20108;-31
2024/02/10 10:30:55;;;;;;;7.47;6.20;;;7.40;99.90;;;;;;5019837;28;20036;-33
2024/02/10 10:33:21;;;;;;;;;;;7.40;99.90;;;;;;5023843;28;20357;-33
2024/02/10 10:35:48;;;;;;;7.85;5.88;;;7.40;99.90;;;;;;5007698;28;20059;-33
2024/02/10 10:38:21;;;;;;;10.70;6.90;;;7.40;99.90;;;;;;5001837;28;20112;-34
2024/02/10 10:40:51;;;;;;;11.63;6.57;;;7.40;99.90;;;;;;5019118;28;20025;-32
2024/02/10 10:43:20;;;;;;;9.70;6.38;;;7.50;99.90;;;;;;5018807;28;20036;-32
2024/02/10 10:45:46;;;;;;;12.85;6.90;;;7.50;99.90;;;;;;5020968;28;20021;-34
2024/02/10 10:48:12;;;;;;;11.60;7.10;;;7.50;99.90;;;;;;5020223;28;20915;-32
2024/02/10 10:50:38;;;;;;;10.50;7.40;;;7.50;99.90;;;;;;5019567;28;20040;-42
2024/02/10 10:53:11;;;;;;;12.63;7.10;;;7.50;99.90;;;;;;5018858;28;20030;-40
2024/02/10 10:55:43;;;;;;;15.95;8.25;;;7.60;99.90;;;;;;5022656;28;20497;-41
2024/02/10 10:58:12;;;;;;;10.73;8.15;;;7.60;99.90;;;;;;5019179;28;20021;-40
2024/02/10 11:00:42;;;;;;;;;;;7.70;99.90;;;;;;5019817;28;20439;-40
2024/02/10 11:03:07;;;;;;;9.45;6.00;;;7.80;99.90;;;;;;5037594;28;19913;-39
2024/02/10 11:05:40;;;;;;;10.88;6.65;;;7.90;99.90;;;;;;5022401;28;20026;-40
2024/02/10 11:08:13;;;;;;;13.25;7.78;;;8.00;99.90;;;;;;5018322;28;20034;-41
2024/02/10 11:10:50;;;;;;;11.63;7.15;;;8.10;99.90;;;;;;5014267;28;20037;-33
2024/02/10 11:13:25;;;;;;;12.75;8.20;;;8.20;99.90;;;;;;5021141;28;20080;-37
2024/02/10 11:16:14;;;;;;;20.73;8.77;;;8.30;99.90;;;;;;5002784;28;20029;-35
2024/02/10 11:18:43;;;;;;;17.38;9.90;;;8.30;99.90;;;;;;5004619;28;20100;-34
2024/02/10 11:21:25;;;;;;;18.95;10.55;;;8.40;99.90;;;;;;5019697;28;20025;-34
2024/02/10 11:23:59;;;;;;;15.57;9.30;;;8.50;99.90;;;;;;5004468;28;20028;-34
2024/02/10 11:26:31;;;;;;;12.32;7.90;;;8.70;99.90;;;;;;5036131;28;20640;-33
2024/02/10 11:29:01;;;;;;;11.95;8.40;;;8.70;99.90;;;;;;5019485;28;20121;-36
2024/02/10 11:31:33;;;;;;;13.77;8.77;;;8.80;99.90;;;;;;5019779;28;20108;-33
2024/02/10 11:34:19;;;;;;;12.48;8.43;;;8.90;99.90;;;;;;5002452;28;20032;-32
2024/02/10 11:36:56;;;;;;;10.85;7.78;;;8.90;99.90;;;;;;5019109;28;20065;-32
2024/02/10 11:39:23;;;;;;;12.85;7.45;;;9.00;99.90;;;;;;5018118;28;20025;-33
2024/02/10 11:41:56;;;;;;;14.27;7.70;;;9.00;99.90;;;;;;5019292;28;20036;-32
2024/02/10 11:44:26;;;;;;;17.35;8.82;;;9.00;99.90;;;;;;5020601;28;20056;-35
2024/02/10 11:46:59;;;;;;;13.18;7.75;;;9.00;99.90;;;;;;5035891;28;20033;-35
2024/02/10 11:49:28;;;;;;;15.10;8.13;;;9.10;99.90;;;;;;5016063;28;20083;-34
2024/02/10 11:51:57;;;;;;;16.00;8.77;;;9.10;99.90;;;;;;5016763;28;20026;-37
2024/02/10 11:54:26;;;;;;;13.60;8.68;;;9.20;99.90;;;;;;5025751;28;20048;-35
2024/02/10 11:56:53;;;;;;;13.40;7.82;;;9.40;99.90;;;;;;5006343;28;20022;-34
2024/02/10 11:59:20;;;;;;;10.65;7.18;;;9.50;99.90;;;;;;5022577;28;20036;-35
2024/02/10 12:01:46;;;;;;;9.95;6.50;;;9.60;99.90;;;;;;4981370;28;20038;-41
2024/02/10 12:04:18;;;;;;;11.02;6.35;;;9.70;99.90;;;;;;5020301;28;20109;-41
2024/02/10 12:06:48;;;;;;;11.00;7.30;;;9.80;99.90;;;;;;5025358;28;20448;-43
2024/02/10 12:09:15;;;;;;;9.93;6.22;;;9.80;99.90;;;;;;5022300;28;20101;-37
2024/02/10 12:11:40;;;;;;;10.52;5.53;;;10.00;99.90;;;;;;5010238;28;20021;-41
2024/02/10 12:14:13;;;;;;;9.98;6.60;;;10.00;99.90;;;;;;5028369;28;20398;-38
2024/02/10 12:16:45;;;;;;;9.02;5.40;;;10.10;99.90;;;;;;5019344;28;20033;-42
2024/02/10 12:19:11;;;;;;;12.23;6.38;;;10.20;99.90;;;;;;5022107;28;20229;-42
2024/02/10 12:21:41;;;;;;;8.65;6.00;;;10.20;99.90;;;;;;5024800;28;20282;-39
2024/02/10 12:24:11;;;;;;;9.32;6.47;;;10.20;99.90;;;;;;5039339;28;20034;-38
2024/02/10 12:26:37;;;;;;;11.48;6.07;;;10.20;99.90;;;;;;5025535;28;20045;-39
2024/02/10 12:29:04;;;;;;;11.07;6.30;;;10.20;99.90;;;;;;5026250;28;20026;-41
2024/02/10 12:31:31;;;;;;;9.98;5.63;;;10.20;99.90;;;;;;5025478;28;20092;-40
2024/02/10 12:33:57;;;;;;;7.18;5.45;;;10.20;99.90;;;;;;5022854;28;20041;-39
2024/02/10 12:36:24;;;;;;;11.43;5.43;;;10.30;99.90;;;;;;5026195;28;20033;-41
2024/02/10 12:38:52;;;;;;;10.60;6.03;;;10.30;99.90;;;;;;5021215;28;20041;-41
2024/02/10 12:41:17;;;;;;;8.68;6.22;;;10.40;99.90;;;;;;5023583;28;20511;-37
2024/02/10 12:43:43;;;;;;;9.80;5.28;;;10.40;99.90;;;;;;5024522;28;20040;-41
2024/02/10 12:46:12;;;;;;;7.68;5.18;;;10.50;99.90;;;;;;5025397;28;20064;-40
2024/02/10 12:48:38;;;;;;;6.47;5.50;;;10.60;99.90;;;;;;5025629;28;20048;-41
2024/02/10 12:51:03;;;;;;;11.38;5.63;;;10.70;99.90;;;;;;5020579;28;20424;-41
2024/02/10 12:53:29;;;;;;;8.70;5.97;;;10.70;99.90;;;;;;5022421;28;20560;-38
2024/02/10 12:55:55;;;;;;;10.57;5.30;;;10.70;99.90;;;;;;5022361;28;20037;-37